Time;durP1;ratioP1;P1;durP2;ratioP2;P2;SDS_P1;SDS_P2;PMS_P1;PMS_P2;Temp;Humidity;BMP_temperature;BMP_pressure;BME280_temperature;BME280_humidity;BME280_pressure;Samples;Min_cycle;Max_cycle;Signal;HPM_P1;HPM_P2
2021/10/14 00:00:20;;;;;;;0.20;0.20;;;;;;;8.01;100.00;101456.88;5071526;28;20044;-80
2021/10/14 00:02:48;;;;;;;0.20;0.20;;;;;;;7.95;100.00;101465.97;5071822;28;20051;-82
2021/10/14 00:05:21;;;;;;;0.20;0.20;;;;;;;7.94;100.00;101458.91;5055333;28;20516;-80
2021/10/14 00:07:54;;;;;;;0.20;0.20;;;;;;;7.98;100.00;101457.34;5051630;28;20059;-82
2021/10/14 00:10:30;;;;;;;0.20;0.20;;;;;;;8.02;100.00;101471.25;5042295;28;20044;-80
2021/10/14 00:12:59;;;;;;;0.20;0.20;;;;;;;8.04;100.00;101461.81;5052773;28;20504;-81
2021/10/14 00:15:32;;;;;;;0.20;0.20;;;;;;;7.99;100.00;101451.69;5064170;28;20033;-80
2021/10/14 00:18:06;;;;;;;0.20;0.20;;;;;;;8.07;100.00;101453.19;5054959;28;20416;-81
2021/10/14 00:20:34;;;;;;;0.20;0.20;;;;;;;8.01;100.00;101454.19;5055113;28;20083;-80
2021/10/14 00:23:08;;;;;;;0.20;0.20;;;;;;;8.08;100.00;101456.72;5049883;28;20048;-79
2021/10/14 00:25:42;;;;;;;0.20;0.20;;;;;;;8.07;100.00;101463.22;5056456;28;20044;-80
2021/10/14 00:28:10;;;;;;;0.20;0.20;;;;;;;8.05;100.00;101462.63;5044085;28;20500;-81
2021/10/14 00:30:44;;;;;;;0.20;0.20;;;;;;;8.07;100.00;101463.22;5066863;28;20036;-80
2021/10/14 00:33:12;;;;;;;0.20;0.20;;;;;;;8.08;100.00;101454.84;5052450;28;20485;-80
2021/10/14 00:35:45;;;;;;;0.13;0.13;;;;;;;8.12;100.00;101455.16;5050251;28;20060;-80
2021/10/14 00:38:18;;;;;;;0.15;0.15;;;;;;;8.15;100.00;101457.41;5049701;28;20504;-80
2021/10/14 00:40:48;;;;;;;0.20;0.20;;;;;;;8.09;100.00;101448.34;5047956;28;20052;-80
2021/10/14 00:43:16;;;;;;;0.13;0.13;;;;;;;8.12;100.00;101438.88;5054180;28;20044;-79
2021/10/14 00:45:45;;;;;;;0.10;0.10;;;;;;;8.18;100.00;101444.16;5050144;28;20067;-82
2021/10/14 00:48:19;;;;;;;0.20;0.20;;;;;;;8.18;100.00;101441.44;5054400;28;20077;-81
2021/10/14 00:50:52;;;;;;;0.20;0.20;;;;;;;8.21;100.00;101445.56;5048196;28;20057;-81
2021/10/14 00:53:20;;;;;;;0.20;0.20;;;;;;;8.24;100.00;101444.25;5042851;28;20053;-80
2021/10/14 00:55:55;;;;;;;0.20;0.20;;;;;;;8.24;100.00;101436.94;5050794;28;20067;-81
2021/10/14 00:58:28;;;;;;;0.10;0.10;;;;;;;8.25;100.00;101438.56;5067301;28;20392;-79
2021/10/14 01:00:57;;;;;;;0.20;0.20;;;;;;;8.21;100.00;101432.00;5049842;28;20055;-81
2021/10/14 01:03:30;;;;;;;0.20;0.20;;;;;;;8.24;100.00;101430.69;5068075;28;20044;-80
2021/10/14 01:06:04;;;;;;;0.20;0.20;;;;;;;8.25;100.00;101427.72;5045378;28;20095;-81
2021/10/14 01:08:37;;;;;;;0.20;0.20;;;;;;;8.26;100.00;101417.69;5063859;28;20406;-81
2021/10/14 01:11:09;;;;;;;0.20;0.20;;;;;;;8.44;100.00;101424.78;5064850;28;20366;-82
2021/10/14 01:13:42;;;;;;;0.20;0.20;;;;;;;8.37;100.00;101424.13;5052306;28;20496;-81
2021/10/14 01:16:15;;;;;;;0.20;0.20;;;;;;;8.30;100.00;101421.56;5051043;28;20053;-79
2021/10/14 01:19:12;;;;;;;0.20;0.20;;;;;;;8.39;100.00;101424.72;5047564;28;20052;-81
2021/10/14 01:21:49;;;;;;;0.20;0.20;;;;;;;8.29;100.00;101419.94;5051578;28;20049;-80
2021/10/14 01:24:22;;;;;;;0.20;0.20;;;;;;;8.41;100.00;101415.25;5054184;28;20488;-80
2021/10/14 01:26:51;;;;;;;0.20;0.20;;;;;;;8.40;100.00;101421.75;5065236;28;20072;-82
2021/10/14 01:29:19;;;;;;;0.20;0.20;;;;;;;8.41;100.00;101417.13;5071735;28;20051;-80
2021/10/14 01:31:47;;;;;;;0.20;0.20;;;;;;;8.44;100.00;101413.94;5045086;28;20059;-80
2021/10/14 01:34:21;;;;;;;0.20;0.20;;;;;;;8.42;100.00;101419.59;5042233;28;20056;-79
2021/10/14 01:36:50;;;;;;;0.20;0.20;;;;;;;8.38;100.00;101423.88;5053788;28;20488;-80
2021/10/14 01:39:18;;;;;;;0.20;0.20;;;;;;;8.41;100.00;101420.69;5053703;28;20056;-80
2021/10/14 01:41:52;;;;;;;0.20;0.20;;;;;;;8.43;100.00;101420.44;5053496;28;20056;-80
2021/10/14 01:44:20;;;;;;;0.20;0.20;;;;;;;8.42;100.00;101410.66;5053254;28;20060;-80
2021/10/14 01:46:53;;;;;;;0.20;0.20;;;;;;;8.53;100.00;101417.91;5047653;28;20130;-80
2021/10/14 01:49:21;;;;;;;0.20;0.20;;;;;;;8.41;100.00;101420.69;5065095;28;20044;-81
2021/10/14 01:51:51;;;;;;;0.00;0.00;;;;;;;8.56;100.00;101425.56;5050900;28;20048;-80
2021/10/14 01:54:19;;;;;;;0.00;0.00;;;;;;;8.50;100.00;101427.34;5054161;28;20048;-80
2021/10/14 01:56:47;;;;;;;0.20;0.20;;;;;;;8.55;100.00;101423.91;5053268;28;20055;-81
2021/10/14 01:59:20;;;;;;;0.20;0.20;;;;;;;8.47;100.00;101414.28;5048729;28;20053;-81
2021/10/14 02:01:48;;;;;;;0.20;0.20;;;;;;;8.57;100.00;101418.22;5052055;28;20055;-79
2021/10/14 02:04:21;;;;;;;0.20;0.20;;;;;;;8.53;100.00;101414.38;5054040;28;20055;-79
2021/10/14 02:06:56;;;;;;;0.10;0.10;;;;;;;8.64;100.00;101418.88;5051358;28;20408;-79
2021/10/14 02:09:29;;;;;;;0.20;0.20;;;;;;;8.59;100.00;101411.50;5053608;28;20040;-79
2021/10/14 02:11:58;;;;;;;0.20;0.20;;;;;;;8.62;100.00;101419.13;5053031;28;20045;-80
2021/10/14 02:14:26;;;;;;;0.20;0.20;;;;;;;8.66;100.00;101419.47;5053571;28;20055;-79
2021/10/14 02:17:14;;;;;;;0.20;0.20;;;;;;;8.62;100.00;101416.41;5070578;28;20047;-81
2021/10/14 02:19:42;;;;;;;0.20;0.20;;;;;;;8.79;100.00;101415.56;5056313;28;20044;-80
2021/10/14 02:22:11;;;;;;;0.20;0.20;;;;;;;8.74;100.00;101404.63;5044727;28;20056;-80
2021/10/14 02:24:45;;;;;;;0.20;0.20;;;;;;;8.70;100.00;101408.91;5040487;28;20057;-80
2021/10/14 02:27:18;;;;;;;0.22;0.22;;;;;;;8.86;100.00;101410.78;5052391;28;20044;-79
2021/10/14 02:29:46;;;;;;;0.20;0.20;;;;;;;8.71;100.00;101405.94;5053043;28;20059;-80
2021/10/14 02:32:19;;;;;;;0.20;0.20;;;;;;;8.75;100.00;101415.22;5040838;28;20041;-79
2021/10/14 02:34:54;;;;;;;0.20;0.20;;;;;;;8.73;100.00;101411.13;5043327;28;20483;-80
2021/10/14 02:37:54;;;;;;;0.28;0.28;;;;;;;8.83;100.00;101414.00;5046678;28;20049;-82
2021/10/14 02:40:27;;;;;;;0.20;0.20;;;;;;;8.69;100.00;101399.97;5044792;28;20407;-81
2021/10/14 02:43:02;;;;;;;0.10;0.10;;;;;;;8.72;100.00;101412.22;5052435;28;20044;-80
2021/10/14 02:45:30;;;;;;;0.20;0.20;;;;;;;8.78;100.00;101389.50;5053418;28;20052;-79
2021/10/14 02:47:59;;;;;;;0.20;0.20;;;;;;;8.72;100.00;101387.78;5051390;28;20057;-80
2021/10/14 02:50:32;;;;;;;0.20;0.20;;;;;;;8.77;100.00;101401.41;5069923;28;20041;-81
2021/10/14 02:53:02;;;;;;;0.20;0.20;;;;;;;8.78;100.00;101400.34;5049968;28;20053;-79
2021/10/14 02:55:36;;;;;;;0.20;0.20;;;;;;;8.79;100.00;101396.56;5056504;28;20052;-79
2021/10/14 02:58:04;;;;;;;0.20;0.20;;;;;;;8.83;100.00;101401.25;5065414;28;20040;-80
2021/10/14 03:00:32;;;;;;;0.10;0.10;;;;;;;8.71;100.00;101384.25;5073490;28;20048;-80
2021/10/14 03:03:05;;;;;;;0.20;0.20;;;;;;;8.83;100.00;101409.38;5053992;28;20488;-81
2021/10/14 03:05:39;;;;;;;0.20;0.20;;;;;;;8.66;100.00;101387.72;5049362;28;20056;-80
2021/10/14 03:08:08;;;;;;;0.20;0.20;;;;;;;8.81;100.00;101405.28;5074568;28;20048;-82
2021/10/14 03:10:41;;;;;;;0.10;0.10;;;;;;;8.89;100.00;101409.47;5061186;28;20060;-81
2021/10/14 03:13:14;;;;;;;0.10;0.10;;;;;;;8.89;100.00;101396.69;5070809;28;20052;-81
2021/10/14 03:15:48;;;;;;;0.20;0.20;;;;;;;8.91;100.00;101404.59;5051473;28;20060;-81
2021/10/14 03:18:21;;;;;;;0.20;0.20;;;;;;;8.96;100.00;101400.06;5056616;28;20049;-80
2021/10/14 03:20:54;;;;;;;0.20;0.20;;;;;;;8.93;100.00;101405.16;5056771;28;20059;-79
2021/10/14 03:23:24;;;;;;;0.20;0.20;;;;;;;8.95;100.00;101401.13;5074199;28;20484;-79
2021/10/14 03:25:57;;;;;;;0.20;0.20;;;;;;;8.95;100.00;101398.44;5073878;28;20037;-79
2021/10/14 03:28:25;;;;;;;0.20;0.20;;;;;;;9.04;100.00;101398.81;5057040;28;20051;-80
2021/10/14 03:30:58;;;;;;;0.20;0.20;;;;;;;9.05;100.00;101400.44;5056428;28;20056;-81
2021/10/14 03:33:32;;;;;;;0.20;0.20;;;;;;;8.97;100.00;101385.41;5056121;28;20044;-79
2021/10/14 03:36:00;;;;;;;0.20;0.20;;;;;;;8.99;100.00;101387.88;5056599;28;20412;-82
2021/10/14 03:38:35;;;;;;;0.20;0.20;;;;;;;9.09;100.00;101398.88;5074719;28;20052;-79
2021/10/14 03:41:08;;;;;;;0.20;0.20;;;;;;;9.13;100.00;101399.19;5056140;28;20504;-80
2021/10/14 03:43:41;;;;;;;0.20;0.20;;;;;;;8.95;100.00;101367.72;5074288;28;20048;-80
2021/10/14 03:46:10;;;;;;;0.20;0.20;;;;;;;9.19;100.00;101398.19;5056534;28;20052;-79
2021/10/14 03:48:43;;;;;;;0.20;0.20;;;;;;;9.08;100.00;101389.06;5069063;28;20496;-80
2021/10/14 03:51:16;;;;;;;0.20;0.20;;;;;;;9.12;100.00;101392.13;5049525;28;20523;-79
2021/10/14 03:53:50;;;;;;;0.20;0.20;;;;;;;9.19;100.00;101396.28;5069853;28;20062;-80
2021/10/14 03:56:18;;;;;;;0.20;0.20;;;;;;;9.15;100.00;101395.13;5055044;28;20063;-79
2021/10/14 03:58:52;;;;;;;0.20;0.20;;;;;;;9.19;100.00;101398.19;5074220;28;20397;-79
2021/10/14 04:01:25;;;;;;;0.20;0.20;;;;;;;9.01;100.00;101369.44;5055128;28;20055;-80
2021/10/14 04:03:58;;;;;;;0.20;0.20;;;;;;;9.27;100.00;101386.88;5057155;28;20045;-79
2021/10/14 04:06:45;;;;;;;0.10;0.10;;;;;;;9.31;100.00;101396.16;5073820;28;20388;-80
2021/10/14 04:09:19;;;;;;;0.20;0.20;;;;;;;9.26;100.00;101387.13;5055861;28;20056;-80
2021/10/14 04:11:52;;;;;;;0.30;0.30;;;;;;;9.26;100.00;101393.38;5054846;28;20048;-80
2021/10/14 04:14:26;;;;;;;0.20;0.20;;;;;;;9.39;100.00;101386.75;5069943;28;20468;-79
2021/10/14 04:16:59;;;;;;;0.30;0.30;;;;;;;9.31;100.00;101395.34;5055226;28;20048;-80
2021/10/14 04:19:27;;;;;;;0.20;0.20;;;;;;;9.29;100.00;101397.47;5055811;28;20075;-79
2021/10/14 04:21:55;;;;;;;0.20;0.20;;;;;;;9.31;100.00;101395.34;5073298;28;20408;-80
2021/10/14 04:24:30;;;;;;;0.20;0.20;;;;;;;9.31;100.00;101395.34;5073455;28;20048;-80
2021/10/14 04:26:58;;;;;;;0.20;0.20;;;;;;;9.29;100.00;101389.31;5072819;28;20048;-80
2021/10/14 04:29:26;;;;;;;0.20;0.20;;;;;;;9.44;100.00;101388.69;5055787;28;20055;-79
2021/10/14 04:31:55;;;;;;;0.20;0.20;;;;;;;9.40;100.00;101398.44;5055151;28;20059;-80
2021/10/14 04:34:23;;;;;;;0.30;0.30;;;;;;;9.39;100.00;101394.91;5055898;28;20056;-80
2021/10/14 04:36:57;;;;;;;0.20;0.20;;;;;;;9.51;100.00;101392.03;5055166;28;20044;-79
2021/10/14 04:39:25;;;;;;;0.20;0.20;;;;;;;9.46;100.00;101386.53;5055527;28;20044;-81
2021/10/14 04:42:00;;;;;;;0.20;0.20;;;;;;;9.41;100.00;101381.06;5054202;28;20376;-79
2021/10/14 04:44:34;;;;;;;0.10;0.10;;;;;;;9.31;100.00;101365.47;5072721;28;20041;-80
2021/10/14 04:47:07;;;;;;;0.20;0.20;;;;;;;9.48;100.00;101389.81;5054626;28;20048;-81
2021/10/14 04:49:40;;;;;;;0.20;0.20;;;;;;;9.49;100.00;101383.31;5054666;28;20056;-80
2021/10/14 04:52:13;;;;;;;0.20;0.20;;;;;;;9.54;100.00;101394.22;5065984;28;20052;-81
2021/10/14 04:54:47;;;;;;;0.20;0.20;;;;;;;9.50;100.00;101388.50;5054374;28;20044;-80
2021/10/14 04:57:21;;;;;;;0.20;0.20;;;;;;;9.56;100.00;101385.84;5055248;28;20123;-80
2021/10/14 04:59:49;;;;;;;0.20;0.20;;;;;;;9.50;100.00;101374.91;5053309;28;20049;-81
2021/10/14 05:02:23;;;;;;;0.20;0.20;;;;;;;9.50;100.00;101383.06;5053947;28;20052;-80
2021/10/14 05:04:51;;;;;;;0.10;0.10;;;;;;;9.57;100.00;101376.59;5054897;28;20060;-81
2021/10/14 05:07:24;;;;;;;0.20;0.20;;;;;;;9.53;100.00;101370.88;5051318;28;20056;-81
2021/10/14 05:09:57;;;;;;;0.20;0.20;;;;;;;9.56;100.00;101373.06;5070444;28;20480;-80
2021/10/14 05:12:27;;;;;;;0.20;0.20;;;;;;;9.59;100.00;101372.53;5053902;28;20052;-80
2021/10/14 05:15:00;;;;;;;0.10;0.10;;;;;;;9.51;100.00;101348.53;5072788;28;20041;-80
2021/10/14 05:17:28;;;;;;;0.20;0.20;;;;;;;9.62;100.00;101368.50;5054912;28;20071;-79
2021/10/14 05:20:01;;;;;;;0.20;0.20;;;;;;;9.51;100.00;101356.69;5064883;28;20687;-80
2021/10/14 05:22:36;;;;;;;0.20;0.20;;;;;;;9.68;100.00;101371.00;5054017;28;20045;-80
2021/10/14 05:25:10;;;;;;;0.20;0.20;;;;;;;9.65;100.00;101373.41;5047880;28;20523;-80
2021/10/14 05:27:44;;;;;;;0.20;0.20;;;;;;;9.63;100.00;101367.44;5048320;28;20064;-81
2021/10/14 05:30:18;;;;;;;0.10;0.10;;;;;;;9.67;100.00;101372.09;5072982;28;20044;-80
2021/10/14 05:32:46;;;;;;;0.20;0.20;;;;;;;9.73;100.00;101369.44;5054373;28;20056;-81
2021/10/14 05:35:15;;;;;;;0.20;0.20;;;;;;;9.69;100.00;101374.53;5072770;28;20040;-80
2021/10/14 05:37:43;;;;;;;0.13;0.13;;;;;;;9.62;100.00;101346.75;5051323;28;20066;-80
2021/10/14 05:40:11;;;;;;;0.20;0.20;;;;;;;9.69;100.00;101360.94;5046953;28;20436;-81
2021/10/14 05:42:40;;;;;;;0.20;0.20;;;;;;;9.76;100.00;101368.91;5054182;28;20049;-81
2021/10/14 05:45:14;;;;;;;0.20;0.20;;;;;;;9.73;100.00;101369.44;5070176;28;20044;-80
2021/10/14 05:47:48;;;;;;;0.20;0.20;;;;;;;9.72;100.00;101368.59;5060532;28;20045;-80
2021/10/14 05:50:21;;;;;;;0.20;0.20;;;;;;;9.74;100.00;101358.28;5052105;28;20052;-80
2021/10/14 05:52:49;;;;;;;0.20;0.20;;;;;;;9.74;100.00;101360.19;5072300;28;20045;-81
2021/10/14 05:55:22;;;;;;;0.20;0.20;;;;;;;9.78;100.00;101358.59;5054120;28;20505;-82
2021/10/14 05:57:56;;;;;;;0.20;0.20;;;;;;;9.83;100.00;101355.91;5054114;28;20056;-81
2021/10/14 06:00:30;;;;;;;0.10;0.10;;;;;;;9.87;100.00;101357.03;5053681;28;20044;-80
2021/10/14 06:03:03;;;;;;;0.20;0.20;;;;;;;9.92;100.00;101351.66;5053646;28;20048;-81
2021/10/14 06:05:36;;;;;;;0.20;0.20;;;;;;;9.91;100.00;101355.44;5051676;28;20598;-80
2021/10/14 06:08:10;;;;;;;0.20;0.20;;;;;;;9.90;100.00;101356.50;5063902;28;20048;-80
2021/10/14 06:10:43;;;;;;;0.15;0.15;;;;;;;9.91;100.00;101355.44;5053761;28;20492;-80
2021/10/14 06:13:17;;;;;;;0.10;0.10;;;;;;;9.94;100.00;101360.34;5052616;28;20413;-82
2021/10/14 06:15:46;;;;;;;0.17;0.17;;;;;;;9.98;100.00;101355.22;5069548;28;20040;-80
2021/10/14 06:18:20;;;;;;;0.20;0.20;;;;;;;10.01;100.00;101357.44;5053978;28;20048;-80
2021/10/14 06:20:53;;;;;;;0.20;0.20;;;;;;;9.99;100.00;101354.16;5053752;28;20048;-79
2021/10/14 06:23:44;;;;;;;0.17;0.17;;;;;;;10.01;100.00;101352.00;5053852;28;20056;-82
2021/10/14 06:26:17;;;;;;;0.20;0.20;;;;;;;9.97;100.00;101357.16;5075534;28;20053;-80
2021/10/14 06:28:50;;;;;;;0.10;0.10;;;;;;;9.87;100.00;101333.41;5057419;28;20064;-81
2021/10/14 06:31:28;;;;;;;0.20;0.20;;;;;;;10.02;100.00;101348.19;5050992;28;20051;-80
2021/10/14 06:34:03;;;;;;;0.20;0.20;;;;;;;10.06;100.00;101348.50;5056940;28;20049;-81
2021/10/14 06:36:36;;;;;;;0.20;0.20;;;;;;;10.03;100.00;101350.66;5075636;28;20052;-81
2021/10/14 06:39:15;;;;;;;0.20;0.20;;;;;;;10.08;100.00;101351.78;5057320;28;20059;-81
2021/10/14 06:41:48;;;;;;;0.20;0.20;;;;;;;10.12;100.00;101342.00;5056623;28;20045;-81
2021/10/14 06:44:22;;;;;;;0.20;0.20;;;;;;;10.12;100.00;101347.44;5056835;28;20520;-80
2021/10/14 06:46:56;;;;;;;0.20;0.20;;;;;;;10.13;100.00;101339.03;5063931;28;20036;-80
2021/10/14 06:49:29;;;;;;;0.10;0.10;;;;;;;10.15;100.00;101342.31;5075548;28;20036;-80
2021/10/14 06:52:09;;;;;;;0.20;0.20;;;;;;;10.15;100.00;101344.22;5069945;28;20403;-80
2021/10/14 06:54:38;;;;;;;0.20;0.20;;;;;;;10.14;100.00;101346.13;5057416;28;20067;-81
2021/10/14 06:57:11;;;;;;;0.20;0.20;;;;;;;10.23;100.00;101340.19;5057259;28;20416;-79
2021/10/14 06:59:44;;;;;;;0.20;0.20;;;;;;;10.38;100.00;101343.03;5056745;28;20055;-80
2021/10/14 07:02:14;;;;;;;0.17;0.17;;;;;;;10.31;100.00;101339.72;5071078;28;20052;-81
2021/10/14 07:04:47;;;;;;;0.10;0.10;;;;;;;10.43;100.00;101334.94;5074517;28;20052;-81
2021/10/14 07:07:21;;;;;;;0.20;0.20;;;;;;;10.47;100.00;101338.75;5056526;28;20048;-82
2021/10/14 07:09:50;;;;;;;0.20;0.20;;;;;;;10.49;100.00;101336.59;5059753;28;20049;-80
2021/10/14 07:12:20;;;;;;;0.20;0.20;;;;;;;10.58;100.00;101331.47;5055775;28;20089;-82
2021/10/14 07:14:54;;;;;;;0.20;0.20;;;;;;;10.65;100.00;101331.25;5056017;28;20044;-81
2021/10/14 07:17:25;;;;;;;0.17;0.17;;;;;;;10.61;100.00;101327.41;5072315;28;20408;-82
2021/10/14 07:19:58;;;;;;;0.20;0.20;;;;;;;10.64;100.00;101318.72;5054926;28;20052;-81
2021/10/14 07:22:32;;;;;;;0.20;0.20;;;;;;;10.66;100.00;101314.66;5056022;28;20051;-82
2021/10/14 07:25:30;;;;;;;0.20;0.20;;;;;;;10.75;100.00;101322.31;5047223;28;20060;-82
2021/10/14 07:28:04;;;;;;;0.10;0.10;;;;;;;10.70;100.00;101315.75;5060114;28;20052;-80
2021/10/14 07:30:40;;;;;;;0.20;0.20;;;;;;;10.79;100.00;101316.06;5059636;28;20055;-82
2021/10/14 07:33:10;;;;;;;0.20;0.20;;;;;;;10.74;100.00;101321.47;5041827;28;20067;-82
2021/10/14 07:35:43;;;;;;;0.20;0.20;;;;;;;10.89;100.00;101323.44;5041790;28;20080;-80
2021/10/14 07:38:16;;;;;;;0.20;0.20;;;;;;;10.82;100.00;101323.69;5043132;28;20428;-81
2021/10/14 07:40:45;;;;;;;0.20;0.20;;;;;;;10.81;100.00;101323.97;5040530;28;20060;-84
2021/10/14 07:43:15;;;;;;;0.20;0.20;;;;;;;10.79;100.00;101324.22;5039593;28;20083;-81
2021/10/14 07:45:48;;;;;;;0.20;0.20;;;;;;;10.88;100.00;101324.53;5042137;28;20064;-81
2021/10/14 07:48:18;;;;;;;0.30;0.30;;;;;;;10.87;100.00;101312.81;5061758;28;20052;-80
2021/10/14 07:50:46;;;;;;;0.20;0.20;;;;;;;10.82;100.00;101309.28;5044327;28;20826;-81
2021/10/14 07:53:25;;;;;;;0.20;0.20;;;;;;;10.96;100.00;101323.22;5039102;28;20569;-82
2021/10/14 07:55:58;;;;;;;0.30;0.30;;;;;;;10.93;100.00;101318.31;5057340;28;20067;-81
2021/10/14 07:58:31;;;;;;;0.20;0.20;;;;;;;10.99;100.00;101326.22;5037316;28;20060;-82
2021/10/14 08:01:05;;;;;;;0.25;0.25;;;;;;;10.94;100.00;101331.66;5058959;28;20040;-81
2021/10/14 08:03:40;;;;;;;0.20;0.20;;;;;;;10.93;100.00;101338.16;5041567;28;20056;-81
2021/10/14 08:06:15;;;;;;;0.20;0.20;;;;;;;10.92;100.00;101350.13;5066412;28;20060;-82
2021/10/14 08:08:50;;;;;;;0.20;0.20;;;;;;;10.92;100.00;101354.78;5043211;28;20067;-81
2021/10/14 08:11:23;;;;;;;0.25;0.25;;;;;;;10.89;100.00;101353.41;5058095;28;21278;-80
2021/10/14 08:13:56;;;;;;;0.20;0.20;;;;;;;10.87;100.00;101353.66;5042572;28;20059;-81
2021/10/14 08:16:31;;;;;;;0.30;0.30;;;;;;;10.82;100.00;101364.53;5064454;28;21315;-82
2021/10/14 08:19:05;;;;;;;0.20;0.20;;;;;;;10.86;100.00;101362.09;5061105;28;20060;-83
2021/10/14 08:21:38;;;;;;;0.10;0.10;;;;;;;10.76;100.00;101365.59;5062143;28;20051;-82
2021/10/14 08:24:11;;;;;;;0.20;0.20;;;;;;;10.67;100.00;101369.91;5049692;28;20068;-83
2021/10/14 08:26:45;;;;;;;0.20;0.20;;;;;;;10.54;100.00;101371.19;5059011;28;20052;-82
2021/10/14 08:29:18;;;;;;;0.13;0.13;;;;;;;10.58;100.00;101379.63;5062495;28;20063;-82
2021/10/14 08:31:52;;;;;;;0.20;0.20;;;;;;;10.50;100.00;101378.25;5044909;28;20511;-80
2021/10/14 08:34:27;;;;;;;0.20;0.20;;;;;;;10.52;100.00;101366.00;5046040;28;20416;-80
2021/10/14 08:36:55;;;;;;;0.20;0.20;;;;;;;10.60;100.00;101372.84;5047184;28;20056;-81
2021/10/14 08:39:30;;;;;;;0.20;0.20;;;;;;;10.63;100.00;101376.94;5059481;28;20048;-82
2021/10/14 08:42:09;;;;;;;0.20;0.20;;;;;;;10.56;100.00;101374.44;5059548;28;20073;-82
2021/10/14 08:44:42;;;;;;;0.20;0.20;;;;;;;10.72;100.00;101381.63;5043034;28;20512;-82
2021/10/14 08:47:19;;;;;;;0.20;0.20;;;;;;;10.70;100.00;101388.41;5044675;28;20056;-82
2021/10/14 08:49:55;;;;;;;0.20;0.20;;;;;;;10.57;100.00;101357.06;5060194;28;20063;-81
2021/10/14 08:52:24;;;;;;;0.20;0.20;;;;;;;10.79;100.00;101381.41;5039089;28;20053;-80
2021/10/14 08:54:58;;;;;;;0.10;0.10;;;;;;;10.61;100.00;101379.94;5038810;28;20056;-81
2021/10/14 08:57:31;;;;;;;0.15;0.15;;;;;;;10.70;100.00;101377.53;5054506;28;20793;-83
2021/10/14 09:00:06;;;;;;;0.20;0.20;;;;;;;10.69;100.00;101371.28;5055605;28;20037;-84
2021/10/14 09:02:40;;;;;;;0.20;0.20;;;;;;;10.76;100.00;101373.78;5038518;28;20059;-81
2021/10/14 09:05:16;;;;;;;0.20;0.20;;;;;;;10.74;100.00;101373.19;5041142;28;20777;-81
2021/10/14 09:07:49;;;;;;;0.20;0.20;;;;;;;10.59;100.00;101363.03;5060306;28;20056;-81
2021/10/14 09:10:22;;;;;;;0.20;0.20;;;;;;;10.65;100.00;101370.16;5038849;28;20053;-81
2021/10/14 09:12:55;;;;;;;0.20;0.20;;;;;;;10.67;100.00;101370.69;5058620;28;20056;-81
2021/10/14 09:15:30;;;;;;;0.20;0.20;;;;;;;10.67;100.00;101372.63;5041735;28;20056;-83
2021/10/14 09:18:04;;;;;;;0.20;0.20;;;;;;;10.64;100.00;101367.72;5059169;28;20601;-83
2021/10/14 09:20:40;;;;;;;0.20;0.20;;;;;;;10.64;100.00;101368.50;5044245;28;20052;-82
2021/10/14 09:23:16;;;;;;;0.20;0.20;;;;;;;10.64;100.00;101370.44;5039455;28;20069;-81
2021/10/14 09:25:51;;;;;;;0.20;0.20;;;;;;;10.62;100.00;101367.97;5038987;28;20302;-83
2021/10/14 09:28:22;;;;;;;0.20;0.20;;;;;;;10.61;100.00;101369.06;5041797;28;20055;-82
2021/10/14 09:30:57;;;;;;;0.20;0.20;;;;;;;10.60;100.00;101370.13;5057847;28;20041;-82
2021/10/14 09:33:35;;;;;;;0.20;0.20;;;;;;;10.62;100.00;101361.69;5038957;28;20772;-83
2021/10/14 09:36:14;;;;;;;;;;;;;;;10.63;100.00;101366.06;5037376;28;20044;-82
2021/10/14 09:38:45;;;;;;;0.10;0.10;;;;;;;10.63;100.00;101369.59;5037355;28;19943;-81
2021/10/14 09:41:15;;;;;;;0.20;0.20;;;;;;;10.59;100.00;101362.22;5038799;28;20079;-82
2021/10/14 09:43:51;;;;;;;0.17;0.17;;;;;;;10.61;100.00;101370.97;5054146;28;20049;-80
2021/10/14 09:46:39;;;;;;;0.20;0.20;;;;;;;10.61;100.00;101365.53;5036345;28;20075;-80
2021/10/14 09:49:16;;;;;;;0.20;0.20;;;;;;;10.77;100.00;101361.81;5056801;28;20048;-82
2021/10/14 09:51:51;;;;;;;0.20;0.20;;;;;;;10.86;100.00;101362.91;5039986;28;21513;-80
2021/10/14 09:54:24;;;;;;;0.20;0.20;;;;;;;10.89;100.00;101353.41;5057030;28;20044;-82
2021/10/14 09:56:59;;;;;;;0.20;0.20;;;;;;;10.89;100.00;101356.94;5037251;28;20052;-80
2021/10/14 09:59:32;;;;;;;0.20;0.20;;;;;;;10.90;100.00;101360.50;5055994;28;21264;-81
2021/10/14 10:02:02;;;;;;;0.20;0.20;;;;;;;10.95;100.00;101355.06;5044942;28;20638;-81
2021/10/14 10:04:37;;;;;;;0.25;0.20;;;;;;;10.98;100.00;101356.44;5061460;28;20040;-81
2021/10/14 10:07:14;;;;;;;0.20;0.20;;;;;;;11.01;100.00;101350.47;5046962;28;20057;-80
2021/10/14 10:09:47;;;;;;;;;;;;;;;11.06;100.00;101345.84;5044633;28;20103;-80
2021/10/14 10:12:16;;;;;;;0.30;0.30;;;;;;;11.13;100.00;101339.31;5063119;28;19943;-80
2021/10/14 10:14:51;;;;;;;0.20;0.20;;;;;;;11.14;100.00;101336.34;5060980;28;20050;-80
2021/10/14 10:17:37;;;;;;;0.15;0.15;;;;;;;11.19;100.00;101332.81;5059932;28;20080;-81
2021/10/14 10:20:31;;;;;;;0.25;0.25;;;;;;;11.16;100.00;101336.91;5058700;28;20045;-79
2021/10/14 10:23:06;;;;;;;0.20;0.20;;;;;;;11.17;100.00;101329.53;5042757;28;21047;-81
2021/10/14 10:25:40;;;;;;;0.17;0.17;;;;;;;11.22;100.00;101329.56;5040688;28;20059;-82
2021/10/14 10:28:37;;;;;;;0.20;0.20;;;;;;;11.30;100.00;101331.75;5045117;28;20063;-80
2021/10/14 10:31:05;;;;;;;0.20;0.20;;;;;;;11.26;100.00;101319.75;5060836;28;20040;-80
2021/10/14 10:33:54;;;;;;;0.20;0.20;;;;;;;11.51;100.00;101327.16;5044199;28;20059;-79
2021/10/14 10:36:51;;;;;;;0.20;0.20;;;;;;;11.44;100.00;101323.06;5043294;28;20059;-79
2021/10/14 10:39:46;;;;;;;;;;;;;;;11.39;100.00;101338.34;5066909;28;20052;-79
2021/10/14 10:42:19;;;;;;;0.20;0.20;;;;;;;11.45;100.00;101321.97;5044277;28;19928;-80
2021/10/14 10:44:53;;;;;;;0.30;0.30;;;;;;;11.47;100.00;101319.81;5046774;28;20044;-80
2021/10/14 10:47:46;;;;;;;0.20;0.20;;;;;;;11.58;100.00;101316.81;5064488;28;20048;-81
2021/10/14 10:50:22;;;;;;;0.20;0.20;;;;;;;11.63;100.00;101324.19;5064785;28;20052;-82
2021/10/14 10:53:02;;;;;;;0.20;0.20;;;;;;;11.62;100.00;101319.00;5065335;28;20071;-80
2021/10/14 10:55:39;;;;;;;0.20;0.20;;;;;;;11.49;100.00;101317.63;5046593;28;20052;-82
2021/10/14 10:58:14;;;;;;;0.20;0.20;;;;;;;11.42;100.00;101309.72;5047645;28;20400;-81
2021/10/14 11:00:48;;;;;;;0.20;0.20;;;;;;;11.38;100.00;101303.97;5045214;28;20052;-82
2021/10/14 11:03:22;;;;;;;0.15;0.15;;;;;;;11.47;100.00;101298.00;5047194;28;20056;-81
2021/10/14 11:06:02;;;;;;;0.20;0.20;;;;;;;11.52;100.00;101303.47;5047042;28;20593;-81
2021/10/14 11:08:32;;;;;;;0.20;0.20;;;;;;;11.56;100.00;101293.66;5064503;28;20064;-80
2021/10/14 11:11:10;;;;;;;0.20;0.20;;;;;;;11.57;100.00;101304.28;5047488;28;20444;-81
2021/10/14 11:13:41;;;;;;;0.20;0.20;;;;;;;11.64;100.00;101293.13;5061795;28;20857;-80
2021/10/14 11:16:16;;;;;;;0.20;0.20;;;;;;;11.69;100.00;101282.19;5063559;28;20044;-81
2021/10/14 11:18:52;;;;;;;0.20;0.20;;;;;;;11.53;100.00;101275.09;5060075;28;20041;-80
2021/10/14 11:21:27;;;;;;;0.20;0.20;;;;;;;11.67;100.00;101280.81;5040362;28;20089;-80
2021/10/14 11:23:56;;;;;;;0.20;0.20;;;;;;;11.56;100.00;101283.56;5040030;28;20313;-81
2021/10/14 11:26:34;;;;;;;0.20;0.20;;;;;;;11.55;100.00;101279.19;5040271;28;20056;-80
2021/10/14 11:29:10;;;;;;;0.20;0.20;;;;;;;11.58;100.00;101281.38;5040391;28;20052;-80
2021/10/14 11:31:48;;;;;;;0.17;0.17;;;;;;;11.64;100.00;101279.50;5059508;28;20052;-80
2021/10/14 11:34:20;;;;;;;0.20;0.20;;;;;;;11.53;100.00;101280.56;5040975;28;20056;-80
2021/10/14 11:36:55;;;;;;;0.20;0.20;;;;;;;11.47;100.00;101270.75;5039152;28;20053;-81
2021/10/14 11:39:25;;;;;;;0.20;0.20;;;;;;;11.58;100.00;101269.66;5058352;28;20053;-82
2021/10/14 11:41:57;;;;;;;0.20;0.20;;;;;;;11.54;100.00;101274.00;5045212;28;20056;-79
2021/10/14 11:44:33;;;;;;;0.20;0.20;;;;;;;11.51;100.00;101266.38;5039109;28;20052;-79
2021/10/14 11:47:02;;;;;;;0.20;0.20;;;;;;;11.45;100.00;101273.75;5065180;28;20045;-78
2021/10/14 11:49:31;;;;;;;0.20;0.20;;;;;;;11.58;100.00;101265.00;5051181;28;20056;-79